Time;durP1;ratioP1;P1;durP2;ratioP2;P2;SDS_P1;SDS_P2;PMS_P1;PMS_P2;Temp;Humidity;BMP_temperature;BMP_pressure;BME280_temperature;BME280_humidity;BME280_pressure;Samples;Min_cycle;Max_cycle;Signal;HPM_P1;HPM_P2
2022/04/23 00:01:14;;;;;;;11.20;4.57;;;16.80;68.10;;;;;;5029095;28;20419;-70
2022/04/23 00:03:41;;;;;;;10.23;5.13;;;16.80;68.50;;;;;;5065228;28;20499;-71
2022/04/23 00:06:07;;;;;;;9.43;4.78;;;16.80;68.80;;;;;;5043899;28;20430;-70
2022/04/23 00:08:32;;;;;;;8.63;4.90;;;16.70;69.10;;;;;;5066533;28;20403;-70
2022/04/23 00:10:59;;;;;;;7.63;4.82;;;16.60;69.30;;;;;;5066421;28;20937;-72
2022/04/23 00:13:25;;;;;;;9.15;4.95;;;16.60;69.40;;;;;;5066628;28;20495;-71
2022/04/23 00:15:52;;;;;;;8.60;4.90;;;16.60;69.80;;;;;;5065186;28;20516;-70
2022/04/23 00:18:18;;;;;;;15.25;5.55;;;16.60;70.00;;;;;;5065641;28;20415;-70
2022/04/23 00:20:46;;;;;;;8.25;5.22;;;16.50;70.00;;;;;;5069278;28;20476;-69
2022/04/23 00:23:12;;;;;;;14.95;6.45;;;16.50;70.40;;;;;;5050367;28;20417;-70
2022/04/23 00:25:39;;;;;;;11.63;6.27;;;16.50;70.60;;;;;;5052537;28;20435;-72
2022/04/23 00:28:05;;;;;;;9.82;6.10;;;16.50;70.90;;;;;;5050535;28;20411;-70
2022/04/23 00:30:31;;;;;;;11.82;6.20;;;16.40;71.10;;;;;;5069890;28;20421;-70
2022/04/23 00:33:01;;;;;;;9.30;6.18;;;16.40;71.40;;;;;;5048950;28;20473;-70
2022/04/23 00:35:27;;;;;;;10.45;6.50;;;16.40;72.60;;;;;;5068289;28;20469;-69
2022/04/23 00:37:52;;;;;;;11.45;6.30;;;16.30;72.10;;;;;;5067256;28;20419;-69
2022/04/23 00:40:20;;;;;;;10.10;6.32;;;16.20;72.20;;;;;;5052389;28;20468;-70
2022/04/23 00:42:52;;;;;;;10.55;6.40;;;16.30;72.50;;;;;;5052434;28;20797;-69
2022/04/23 00:45:21;;;;;;;11.65;6.95;;;16.20;72.70;;;;;;5070744;28;20891;-71
2022/04/23 00:47:47;;;;;;;11.38;6.60;;;16.10;72.70;;;;;;5051288;28;20502;-70
2022/04/23 00:50:14;;;;;;;10.00;6.55;;;16.10;73.10;;;;;;5069418;28;20411;-69
2022/04/23 00:52:41;;;;;;;12.65;7.07;;;16.10;73.20;;;;;;5064812;28;20403;-70
2022/04/23 00:55:08;;;;;;;10.70;6.72;;;16.00;73.30;;;;;;5035157;28;20407;-70
2022/04/23 00:57:35;;;;;;;10.90;7.00;;;16.00;73.60;;;;;;5049988;28;20477;-70
2022/04/23 01:00:04;;;;;;;11.18;7.15;;;16.00;74.10;;;;;;5052189;28;20410;-71
2022/04/23 01:02:30;;;;;;;10.48;7.72;;;16.00;74.30;;;;;;5066712;28;20904;-70
2022/04/23 01:04:55;;;;;;;10.93;7.90;;;16.00;74.60;;;;;;5069196;28;20533;-71
2022/04/23 01:07:22;;;;;;;15.87;8.07;;;16.00;74.80;;;;;;5066657;28;20430;-71
2022/04/23 01:09:48;;;;;;;10.73;7.80;;;15.90;75.00;;;;;;5062668;28;20434;-72
2022/04/23 01:12:14;;;;;;;12.80;8.80;;;15.90;75.30;;;;;;5068083;28;20911;-71
2022/04/23 01:15:03;;;;;;;13.68;8.38;;;15.90;75.50;;;;;;5069616;28;20387;-71
2022/04/23 01:17:29;;;;;;;13.00;7.72;;;15.90;75.60;;;;;;5050168;28;20414;-71
2022/04/23 01:19:55;;;;;;;11.70;8.27;;;15.90;75.80;;;;;;5051645;28;20406;-71
2022/04/23 01:22:23;;;;;;;15.30;8.63;;;15.80;76.00;;;;;;5065330;28;21465;-70
2022/04/23 01:24:54;;;;;;;13.00;8.20;;;15.80;76.20;;;;;;5047879;28;20549;-70
2022/04/23 01:27:25;;;;;;;12.60;8.75;;;15.80;76.50;;;;;;5067815;28;20514;-70
2022/04/23 01:29:51;;;;;;;13.98;8.68;;;15.80;76.90;;;;;;5051077;28;20426;-70
2022/04/23 01:32:17;;;;;;;11.63;9.37;;;15.70;77.10;;;;;;5065284;28;20902;-71
2022/04/23 01:34:42;;;;;;;15.57;9.00;;;15.70;77.40;;;;;;5050350;28;20411;-71
2022/04/23 01:37:08;;;;;;;12.80;9.33;;;15.70;77.50;;;;;;5048375;28;20395;-71
2022/04/23 01:39:34;;;;;;;14.53;10.13;;;15.60;77.60;;;;;;5068722;28;20410;-71
2022/04/23 01:42:00;;;;;;;12.83;9.10;;;15.60;77.90;;;;;;5049766;28;20418;-71
2022/04/23 01:44:26;;;;;;;16.33;10.15;;;15.60;78.10;;;;;;5049962;28;20768;-72
2022/04/23 01:46:51;;;;;;;13.77;9.20;;;15.60;78.40;;;;;;5066452;28;20410;-72
2022/04/23 01:49:17;;;;;;;15.67;9.93;;;15.60;78.60;;;;;;5068663;28;20388;-73
2022/04/23 01:51:43;;;;;;;13.80;10.40;;;15.50;78.90;;;;;;5063532;28;20427;-70
2022/04/23 01:54:08;;;;;;;14.13;9.60;;;15.50;79.00;;;;;;5066906;28;20452;-69
2022/04/23 01:56:34;;;;;;;12.87;9.40;;;15.50;79.20;;;;;;5032233;28;20797;-70
2022/04/23 01:59:00;;;;;;;15.98;10.95;;;15.50;79.20;;;;;;5047603;28;20971;-71
2022/04/23 02:01:26;;;;;;;14.15;10.82;;;15.50;79.30;;;;;;5067811;28;20407;-70
2022/04/23 02:03:52;;;;;;;14.85;10.27;;;15.50;79.60;;;;;;5049285;28;20811;-71
2022/04/23 02:06:17;;;;;;;14.57;10.90;;;15.40;79.50;;;;;;5049807;28;20426;-72
2022/04/23 02:08:43;;;;;;;15.02;10.90;;;15.40;79.70;;;;;;5066774;28;20874;-70
2022/04/23 02:11:09;;;;;;;17.23;11.05;;;15.40;79.90;;;;;;5049112;28;20419;-70
2022/04/23 02:13:34;;;;;;;15.03;11.33;;;15.40;79.90;;;;;;5047737;28;20487;-71
2022/04/23 02:16:03;;;;;;;18.42;12.05;;;15.50;80.10;;;;;;5048269;28;20415;-71
2022/04/23 02:18:30;;;;;;;17.67;11.93;;;15.50;80.30;;;;;;5049213;28;20412;-71
2022/04/23 02:20:55;;;;;;;19.00;13.43;;;15.50;80.10;;;;;;5048696;28;20415;-70
2022/04/23 02:23:21;;;;;;;18.38;13.18;;;15.50;80.40;;;;;;5049720;28;20766;-69
2022/04/23 02:25:47;;;;;;;18.50;14.05;;;15.50;80.20;;;;;;5046368;28;20782;-71
2022/04/23 02:28:12;;;;;;;21.10;13.50;;;15.50;80.40;;;;;;5045733;28;20413;-70
2022/04/23 02:30:38;;;;;;;19.98;14.23;;;15.50;80.60;;;;;;5046104;28;20424;-69
2022/04/23 02:33:04;;;;;;;20.38;14.63;;;15.50;80.50;;;;;;5046025;28;20950;-72
2022/04/23 02:35:31;;;;;;;21.53;15.27;;;15.50;80.30;;;;;;5044363;28;20398;-70
2022/04/23 02:37:57;;;;;;;19.50;15.50;;;15.50;80.60;;;;;;5044802;28;20455;-70
2022/04/23 02:40:23;;;;;;;21.45;14.85;;;15.40;80.70;;;;;;5029918;28;20421;-70
2022/04/23 02:42:51;;;;;;;18.10;15.02;;;15.50;80.90;;;;;;5042536;28;20412;-70
2022/04/23 02:45:20;;;;;;;18.55;15.23;;;15.40;81.10;;;;;;5046665;28;20806;-72
2022/04/23 02:47:50;;;;;;;21.40;16.13;;;15.50;81.00;;;;;;5042981;28;20976;-71
2022/04/23 02:50:25;;;;;;;22.42;16.20;;;15.40;81.20;;;;;;5043881;28;20463;-72
2022/04/23 02:52:52;;;;;;;22.27;16.83;;;15.40;81.60;;;;;;5045905;28;20444;-71
2022/04/23 02:55:17;;;;;;;20.03;16.67;;;15.40;81.70;;;;;;5045182;28;20877;-71
2022/04/23 02:57:43;;;;;;;21.85;17.00;;;15.40;81.90;;;;;;5043759;28;20420;-70
2022/04/23 03:00:10;;;;;;;22.60;17.07;;;15.40;81.90;;;;;;5047798;28;20500;-71
2022/04/23 03:02:39;;;;;;;20.05;16.75;;;15.40;82.30;;;;;;5042884;28;20421;-71
2022/04/23 03:05:06;;;;;;;23.42;16.38;;;15.40;82.20;;;;;;5043656;28;20544;-71
2022/04/23 03:07:33;;;;;;;22.23;17.92;;;15.40;82.10;;;;;;5048378;28;20401;-71
2022/04/23 03:09:59;;;;;;;22.63;17.88;;;15.40;82.40;;;;;;5045350;28;20765;-72
2022/04/23 03:12:25;;;;;;;21.83;16.60;;;15.40;82.50;;;;;;5046304;28;20385;-73
2022/04/23 03:14:50;;;;;;;21.98;18.02;;;15.40;82.40;;;;;;5044381;28;20816;-72
2022/04/23 03:17:16;;;;;;;24.43;19.47;;;15.40;82.50;;;;;;5043302;28;20942;-72
2022/04/23 03:19:41;;;;;;;23.90;19.17;;;15.30;82.70;;;;;;5042068;28;20421;-70
2022/04/23 03:22:07;;;;;;;26.02;18.35;;;15.30;82.80;;;;;;5042951;28;20451;-71
2022/04/23 03:24:33;;;;;;;24.83;19.60;;;15.30;83.20;;;;;;5042450;28;20498;-72
2022/04/23 03:26:58;;;;;;;24.00;19.70;;;15.20;83.40;;;;;;5046068;28;20413;-70
2022/04/23 03:29:24;;;;;;;21.52;18.33;;;15.20;83.30;;;;;;5044066;28;20421;-72
2022/04/23 03:31:50;;;;;;;23.02;19.05;;;15.20;83.40;;;;;;5046242;28;20901;-71
2022/04/23 03:34:18;;;;;;;25.30;19.30;;;15.20;84.20;;;;;;5043102;28;20969;-70
2022/04/23 03:36:44;;;;;;;25.33;20.23;;;15.10;83.50;;;;;;5045989;28;20413;-68
2022/04/23 03:39:10;;;;;;;24.38;19.70;;;15.10;83.90;;;;;;5045856;28;20415;-69
2022/04/23 03:41:36;;;;;;;24.63;20.87;;;15.10;84.30;;;;;;5047056;28;20507;-69
2022/04/23 03:44:01;;;;;;;25.23;19.92;;;15.00;84.50;;;;;;5045887;28;20437;-70
2022/04/23 03:46:27;;;;;;;25.70;20.50;;;15.00;84.90;;;;;;5045955;28;20405;-70
2022/04/23 03:48:53;;;;;;;24.67;20.45;;;14.90;85.30;;;;;;5045377;28;20513;-69
2022/04/23 03:51:18;;;;;;;26.20;21.15;;;14.90;85.30;;;;;;5045514;28;20425;-69
2022/04/23 03:53:44;;;;;;;27.37;21.50;;;14.90;85.50;;;;;;5048047;28;20442;-69
2022/04/23 03:56:10;;;;;;;26.92;21.30;;;14.90;85.60;;;;;;5048096;28;20491;-69
2022/04/23 03:58:35;;;;;;;25.60;20.17;;;14.80;85.90;;;;;;5048285;28;20889;-70
2022/04/23 04:01:01;;;;;;;27.77;21.73;;;14.80;86.20;;;;;;5044191;28;20417;-69
2022/04/23 04:03:27;;;;;;;25.40;20.48;;;14.80;86.60;;;;;;5046979;28;20486;-70
2022/04/23 04:05:53;;;;;;;24.90;20.33;;;14.70;86.40;;;;;;5049122;28;20493;-71
2022/04/23 04:08:20;;;;;;;28.05;21.42;;;14.70;86.50;;;;;;5047036;28;20444;-70
2022/04/23 04:10:45;;;;;;;26.17;20.17;;;14.60;86.90;;;;;;5048698;28;21114;-70
2022/04/23 04:13:13;;;;;;;25.85;20.45;;;14.60;87.20;;;;;;5046022;28;20412;-70
2022/04/23 04:15:43;;;;;;;25.20;20.00;;;14.60;87.20;;;;;;5048897;28;20762;-73
2022/04/23 04:18:11;;;;;;;29.02;21.67;;;14.50;87.50;;;;;;5030771;28;20460;-71
2022/04/23 04:20:37;;;;;;;27.75;22.08;;;14.50;87.60;;;;;;5050349;28;20408;-70
2022/04/23 04:23:03;;;;;;;26.90;21.92;;;14.50;87.90;;;;;;5047683;28;20468;-70
2022/04/23 04:25:29;;;;;;;24.03;20.50;;;14.50;88.20;;;;;;5055506;28;20815;-70
2022/04/23 04:27:55;;;;;;;28.97;21.80;;;14.40;88.20;;;;;;5066976;28;20411;-71
2022/04/23 04:30:20;;;;;;;24.42;20.10;;;14.40;88.40;;;;;;5069695;28;20427;-70
2022/04/23 04:32:46;;;;;;;24.63;20.40;;;14.40;88.50;;;;;;5068570;28;20438;-71
2022/04/23 04:35:12;;;;;;;26.53;20.97;;;14.30;88.60;;;;;;5069405;28;20795;-72
2022/04/23 04:37:38;;;;;;;25.25;20.55;;;14.30;89.10;;;;;;5052000;28;20396;-71
2022/04/23 04:40:05;;;;;;;25.48;20.95;;;14.30;89.70;;;;;;5066100;28;20768;-70
2022/04/23 04:42:31;;;;;;;24.98;20.50;;;14.30;88.90;;;;;;5067995;28;20447;-70
2022/04/23 04:44:57;;;;;;;27.90;21.10;;;14.20;88.90;;;;;;5052591;28;20856;-70
2022/04/23 04:47:22;;;;;;;26.27;21.60;;;14.20;89.20;;;;;;5066188;28;20407;-70
2022/04/23 04:49:48;;;;;;;26.23;20.80;;;14.20;89.40;;;;;;5034447;28;20923;-65
2022/04/23 04:52:15;;;;;;;25.90;20.00;;;14.20;89.40;;;;;;5045099;28;20518;-70
2022/04/23 04:54:40;;;;;;;23.35;19.65;;;14.20;89.50;;;;;;5052413;28;20721;-71
2022/04/23 04:57:06;;;;;;;22.92;19.58;;;14.20;89.60;;;;;;5063571;28;20411;-68
2022/04/23 04:59:32;;;;;;;23.20;19.92;;;14.20;89.50;;;;;;5070084;28;20402;-68
2022/04/23 05:01:59;;;;;;;28.23;20.38;;;14.20;89.50;;;;;;5059854;28;20422;-68
2022/04/23 05:04:25;;;;;;;23.00;19.60;;;14.20;89.60;;;;;;5069275;28;20901;-67
2022/04/23 05:06:50;;;;;;;21.75;19.45;;;14.20;89.50;;;;;;5050678;28;20416;-68
2022/04/23 05:09:16;;;;;;;25.23;19.57;;;14.10;89.70;;;;;;5046585;28;21300;-67
2022/04/23 05:11:42;;;;;;;24.08;18.60;;;14.10;90.20;;;;;;5066785;28;20420;-67
2022/04/23 05:14:08;;;;;;;24.37;19.70;;;14.10;89.60;;;;;;5050188;28;20914;-68
2022/04/23 05:16:34;;;;;;;28.13;19.92;;;14.10;89.60;;;;;;5067317;28;20767;-68
2022/04/23 05:19:00;;;;;;;25.00;19.80;;;14.10;89.70;;;;;;5067425;28;20407;-69
2022/04/23 05:21:25;;;;;;;21.92;19.50;;;14.10;89.80;;;;;;5068816;28;20907;-68
2022/04/23 05:23:51;;;;;;;22.90;18.27;;;14.10;90.00;;;;;;5047251;28;20417;-68
2022/04/23 05:26:17;;;;;;;23.77;19.00;;;14.20;89.70;;;;;;5065110;28;20420;-68
2022/04/23 05:28:42;;;;;;;25.10;18.73;;;14.10;89.70;;;;;;5050793;28;20411;-69
2022/04/23 05:31:09;;;;;;;21.87;18.53;;;14.10;89.70;;;;;;5033677;28;20927;-68
2022/04/23 05:33:35;;;;;;;23.73;18.52;;;14.10;89.50;;;;;;5067673;28;20418;-67
2022/04/23 05:36:01;;;;;;;19.52;17.38;;;14.20;89.60;;;;;;5069226;28;20456;-67
2022/04/23 05:38:27;;;;;;;21.02;16.60;;;14.20;89.60;;;;;;5062277;28;20541;-67
2022/04/23 05:40:53;;;;;;;21.27;17.88;;;14.10;89.60;;;;;;5047204;28;20901;-68
2022/04/23 05:43:18;;;;;;;23.47;17.73;;;14.10;89.60;;;;;;5066586;28;20407;-68
2022/04/23 05:45:44;;;;;;;21.10;17.23;;;14.10;89.70;;;;;;5068219;28;20864;-68
2022/04/23 05:48:10;;;;;;;20.75;17.05;;;14.10;90.00;;;;;;5062639;28;20930;-68
2022/04/23 05:50:36;;;;;;;18.67;16.37;;;14.10;90.00;;;;;;5049310;28;20560;-69
2022/04/23 05:53:02;;;;;;;20.02;16.27;;;14.20;89.80;;;;;;5046274;28;20453;-69
2022/04/23 05:55:27;;;;;;;23.00;17.80;;;14.20;89.70;;;;;;5067071;28;20919;-68
2022/04/23 05:57:53;;;;;;;21.85;17.52;;;14.20;90.00;;;;;;5062191;28;20412;-68
2022/04/23 06:00:19;;;;;;;18.83;16.20;;;14.20;89.80;;;;;;5067398;28;20407;-68
2022/04/23 06:02:45;;;;;;;20.15;16.88;;;14.30;89.40;;;;;;5063933;28;20418;-69
2022/04/23 06:05:11;;;;;;;20.27;16.85;;;14.30;89.40;;;;;;5049302;28;20434;-68
2022/04/23 06:07:37;;;;;;;20.33;16.65;;;14.30;89.30;;;;;;5065663;28;20788;-68
2022/04/23 06:10:04;;;;;;;17.80;15.88;;;14.30;89.20;;;;;;5049321;28;20930;-68
2022/04/23 06:12:31;;;;;;;17.67;15.55;;;14.30;89.00;;;;;;5046791;28;20768;-70
2022/04/23 06:14:57;;;;;;;18.25;15.18;;;14.30;88.80;;;;;;5068280;28;20863;-68
2022/04/23 06:17:24;;;;;;;18.60;16.23;;;14.30;88.50;;;;;;5047050;28;20456;-69
2022/04/23 06:19:50;;;;;;;19.90;16.55;;;14.30;88.40;;;;;;5065111;28;20419;-68
2022/04/23 06:22:15;;;;;;;18.13;16.17;;;14.30;88.50;;;;;;5045609;28;20400;-69
2022/04/23 06:24:41;;;;;;;20.65;16.38;;;14.30;88.70;;;;;;5049474;28;20403;-68
2022/04/23 06:27:07;;;;;;;19.48;15.68;;;14.30;88.60;;;;;;5074899;28;20855;-69
2022/04/23 06:29:33;;;;;;;18.90;15.63;;;14.30;88.50;;;;;;5041605;28;20444;-68
2022/04/23 06:31:58;;;;;;;18.60;15.43;;;14.30;88.20;;;;;;5048031;28;20410;-68
2022/04/23 06:34:24;;;;;;;19.87;15.87;;;14.40;88.10;;;;;;5046279;28;20938;-68
2022/04/23 06:36:49;;;;;;;17.27;15.47;;;14.40;88.00;;;;;;5046480;28;20421;-69
2022/04/23 06:39:15;;;;;;;19.80;16.05;;;14.50;88.00;;;;;;5045570;28;20421;-69
2022/04/23 06:41:41;;;;;;;19.10;16.15;;;14.50;87.60;;;;;;5046625;28;20893;-69
2022/04/23 06:44:06;;;;;;;18.60;16.00;;;14.60;87.30;;;;;;5045535;28;20425;-70
2022/04/23 06:46:32;;;;;;;18.42;15.80;;;14.60;86.80;;;;;;5047324;28;20914;-68
2022/04/23 06:49:04;;;;;;;18.38;15.50;;;14.60;86.80;;;;;;5044328;28;20501;-68
2022/04/23 06:51:31;;;;;;;18.67;15.50;;;14.60;86.50;;;;;;5044262;28;20517;-69
2022/04/23 06:53:56;;;;;;;21.15;15.93;;;14.70;86.70;;;;;;5044158;28;20415;-70
2022/04/23 06:56:22;;;;;;;20.77;16.93;;;14.70;86.60;;;;;;5043235;28;21342;-67
2022/04/23 06:58:48;;;;;;;20.47;15.43;;;14.70;86.70;;;;;;5045633;28;20422;-67
2022/04/23 07:01:15;;;;;;;18.95;15.20;;;14.80;86.30;;;;;;5041451;28;20414;-69
2022/04/23 07:03:41;;;;;;;22.65;15.02;;;14.80;86.10;;;;;;5043354;28;20758;-68
2022/04/23 07:06:07;;;;;;;19.37;15.23;;;14.90;85.80;;;;;;5047938;28;20889;-69
2022/04/23 07:08:32;;;;;;;19.45;15.23;;;14.90;86.00;;;;;;5042540;28;20420;-68
2022/04/23 07:10:58;;;;;;;20.13;15.10;;;15.00;85.50;;;;;;5038430;28;20447;-68
2022/04/23 07:13:25;;;;;;;16.80;14.73;;;15.00;85.20;;;;;;5045338;28;20897;-66
2022/04/23 07:15:51;;;;;;;18.38;15.73;;;15.00;85.10;;;;;;5041617;28;20456;-67
2022/04/23 07:18:16;;;;;;;19.05;15.52;;;15.00;85.30;;;;;;5044984;28;20409;-66
2022/04/23 07:20:42;;;;;;;17.45;14.40;;;15.10;85.60;;;;;;5043960;28;20489;-65
2022/04/23 07:25:52;;;;;;;20.33;15.55;;;15.20;84.00;;;;;;5048372;28;20419;-68
2022/04/23 07:28:20;;;;;;;19.53;14.80;;;15.20;83.70;;;;;;5066577;28;20411;-66
2022/04/23 07:30:46;;;;;;;20.90;16.80;;;15.30;84.00;;;;;;5064087;28;20435;-68
2022/04/23 07:37:28;;;;;;;19.73;15.65;;;15.40;84.30;;;;;;5065087;28;20412;-66
2022/04/23 07:38:42;;;;;;;19.90;15.80;;;15.50;83.30;;;;;;5062753;28;20399;-68
2022/04/23 07:41:09;;;;;;;19.33;15.70;;;15.50;82.60;;;;;;5066554;28;20407;-68
2022/04/23 07:43:35;;;;;;;20.75;15.95;;;15.60;82.20;;;;;;5065320;28;20908;-67
2022/04/23 07:46:00;;;;;;;21.35;15.05;;;15.60;82.00;;;;;;5067123;28;20392;-68
2022/04/23 07:48:26;;;;;;;18.77;15.07;;;15.60;82.60;;;;;;5047375;28;20431;-68
2022/04/23 07:50:53;;;;;;;17.07;13.97;;;15.70;82.50;;;;;;5065439;28;20426;-67
2022/04/23 07:53:18;;;;;;;21.13;15.90;;;15.80;81.80;;;;;;5064171;28;20415;-69
2022/04/23 07:55:44;;;;;;;16.07;13.90;;;15.80;81.70;;;;;;5065254;28;20906;-69
2022/04/23 07:58:10;;;;;;;18.65;14.82;;;15.90;81.30;;;;;;5065678;28;20418;-69
2022/04/23 08:00:37;;;;;;;21.80;15.17;;;15.90;81.70;;;;;;5063498;28;20466;-69
2022/04/23 08:03:03;;;;;;;20.45;15.52;;;16.00;81.30;;;;;;5063149;28;20415;-66
2022/04/23 08:05:30;;;;;;;18.60;15.07;;;16.10;80.60;;;;;;5065380;28;20443;-68
2022/04/23 08:07:56;;;;;;;20.83;16.40;;;16.20;80.20;;;;;;5048767;28;20484;-67
2022/04/23 08:10:21;;;;;;;18.67;15.10;;;16.30;78.90;;;;;;5066202;28;20907;-67
2022/04/23 08:12:47;;;;;;;17.67;15.50;;;16.40;78.60;;;;;;5047192;28;20412;-68
2022/04/23 08:15:13;;;;;;;22.80;16.08;;;16.60;78.60;;;;;;5066657;28;20403;-68
2022/04/23 08:17:39;;;;;;;19.13;15.63;;;16.80;77.20;;;;;;5048114;28;20411;-69
2022/04/23 08:20:06;;;;;;;17.90;15.10;;;16.90;76.50;;;;;;5066847;28;20406;-70
2022/04/23 08:22:32;;;;;;;17.60;15.20;;;17.10;76.30;;;;;;5063288;28;20413;-69
2022/04/23 08:24:58;;;;;;;20.23;14.93;;;17.10;76.20;;;;;;5048819;28;20407;-70
2022/04/23 08:27:23;;;;;;;18.45;14.95;;;17.20;75.50;;;;;;5043779;28;20411;-67
2022/04/23 08:32:36;;;;;;;19.33;14.73;;;17.00;76.50;;;;;;5046442;28;20273;-67
2022/04/23 08:35:04;;;;;;;18.27;14.43;;;16.80;78.00;;;;;;5032732;28;20400;-67
2022/04/23 08:37:30;;;;;;;;;;;16.70;79.00;;;;;;5064993;28;20024;-64
2022/04/23 08:39:55;;;;;;;;;;;16.60;79.20;;;;;;5051737;28;19912;-68
2022/04/23 08:42:21;;;;;;;15.60;13.30;;;16.70;80.70;;;;;;5051543;28;20271;-68
2022/04/23 08:44:47;;;;;;;18.60;13.80;;;16.90;81.90;;;;;;5069068;28;21049;-69
2022/04/23 08:47:13;;;;;;;15.83;13.43;;;18.40;72.50;;;;;;5066900;28;21099;-69
2022/04/23 08:49:42;;;;;;;16.60;13.52;;;19.50;67.30;;;;;;5052335;28;20399;-69
2022/04/23 08:52:19;;;;;;;19.45;14.13;;;20.50;61.40;;;;;;5066307;28;20447;-70
2022/04/23 08:54:46;;;;;;;15.93;13.00;;;21.20;58.50;;;;;;5052529;28;20770;-70
2022/04/23 08:57:12;;;;;;;16.25;12.77;;;22.10;55.50;;;;;;5068838;28;20574;-68
2022/04/23 08:59:38;;;;;;;15.57;11.80;;;23.00;52.30;;;;;;5051226;28;20749;-69
2022/04/23 09:02:11;;;;;;;18.48;13.52;;;22.50;55.70;;;;;;5047101;28;20502;-70
2022/04/23 09:04:37;;;;;;;15.23;12.90;;;23.70;49.30;;;;;;5068087;28;20419;-70
2022/04/23 09:07:03;;;;;;;15.25;12.27;;;24.40;47.00;;;;;;5047581;28;20419;-69
2022/04/23 09:09:29;;;;;;;15.05;12.68;;;24.90;45.60;;;;;;5034029;28;20419;-70
2022/04/23 09:11:57;;;;;;;14.47;12.23;;;25.50;44.20;;;;;;5050190;28;20414;-69
2022/04/23 09:14:32;;;;;;;15.40;12.50;;;26.00;43.10;;;;;;5063526;28;20403;-70
2022/04/23 09:25:37;;;;;;;15.98;10.50;;;27.90;39.00;;;;;;5048896;28;20407;-69
2022/04/23 09:28:29;;;;;;;12.23;10.93;;;28.70;38.00;;;;;;5066028;28;20414;-70
2022/04/23 09:30:55;;;;;;;13.18;10.77;;;29.30;35.90;;;;;;5046788;28;20447;-69
2022/04/23 09:33:28;;;;;;;12.98;10.57;;;29.60;35.30;;;;;;5069600;28;20426;-70
2022/04/23 09:35:54;;;;;;;13.27;10.40;;;30.00;34.40;;;;;;5066401;28;20904;-70
2022/04/23 09:38:20;;;;;;;12.00;10.52;;;30.40;33.70;;;;;;5051312;28;20412;-69
2022/04/23 09:41:16;;;;;;;13.57;11.23;;;30.80;32.50;;;;;;5051048;28;20391;-70
2022/04/23 09:44:05;;;;;;;11.87;10.40;;;31.00;31.90;;;;;;5029101;28;20417;-71
2022/04/23 09:46:47;;;;;;;15.15;10.00;;;31.00;31.70;;;;;;5068579;28;20404;-69
2022/04/23 09:49:19;;;;;;;17.35;10.70;;;31.20;31.60;;;;;;5050268;28;20403;-70
2022/04/23 09:52:00;;;;;;;14.18;11.10;;;31.60;30.80;;;;;;5049582;28;20400;-69
2022/04/23 09:54:27;;;;;;;14.35;9.98;;;32.30;30.00;;;;;;5068170;28;20436;-71
2022/04/23 09:56:53;;;;;;;14.02;10.05;;;33.00;29.30;;;;;;5067513;28;20412;-71
2022/04/23 09:59:19;;;;;;;13.17;9.90;;;33.60;28.70;;;;;;5068999;28;20400;-70
2022/04/23 10:01:47;;;;;;;14.37;9.90;;;33.90;28.30;;;;;;5043536;28;20934;-70
2022/04/23 10:04:15;;;;;;;16.33;11.07;;;34.40;27.80;;;;;;5065262;28;20419;-70
2022/04/23 10:06:43;;;;;;;13.57;9.88;;;34.60;27.20;;;;;;5065073;28;20461;-70
2022/04/23 10:09:09;;;;;;;13.13;10.23;;;34.60;27.30;;;;;;5067816;28;20414;-69
2022/04/23 10:11:37;;;;;;;;;;;34.90;26.80;;;;;;5051314;28;20071;-68
2022/04/23 10:14:03;;;;;;;;;;;33.80;28.70;;;;;;5067334;28;19919;-71
2022/04/23 10:16:29;;;;;;;;;;;33.10;30.50;;;;;;5051749;28;19947;-70
2022/04/23 10:18:56;;;;;;;;;;;32.50;32.00;;;;;;5052202;28;19942;-69
2022/04/23 10:21:26;;;;;;;;;;;32.10;33.20;;;;;;5066351;28;19970;-70
2022/04/23 10:23:59;;;;;;;;;;;32.00;33.80;;;;;;5080452;28;19954;-69
2022/04/23 10:26:40;;;;;;;;;;;32.00;35.00;;;;;;5049193;28;19956;-70
2022/04/23 10:29:09;;;;;;;;;;;32.00;35.70;;;;;;5067900;28;20357;-70
2022/04/23 10:31:35;;;;;;;;;;;31.80;35.40;;;;;;5069378;28;20315;-70
2022/04/23 10:34:00;;;;;;;;;;;31.50;37.00;;;;;;5083672;28;19919;-68
2022/04/23 10:36:27;;;;;;;;;;;31.20;37.10;;;;;;5065151;28;19912;-70
2022/04/23 10:39:11;;;;;;;;;;;31.10;37.30;;;;;;5070203;28;19913;-69
2022/04/23 10:41:37;;;;;;;;;;;31.00;37.80;;;;;;5084460;28;19908;-70
2022/04/23 10:44:03;;;;;;;;;;;31.20;35.90;;;;;;5067884;28;20000;-70
2022/04/23 10:46:37;;;;;;;;;;;33.50;28.70;;;;;;5083309;28;19921;-70
2022/04/23 10:49:13;;;;;;;;;;;34.90;26.80;;;;;;5050009;28;19908;-69
2022/04/23 10:51:50;;;;;;;;;;;35.90;26.30;;;;;;5066851;28;19958;-69
2022/04/23 10:54:19;;;;;;;;;;;36.40;24.80;;;;;;5065953;28;19955;-69
2022/04/23 10:56:49;;;;;;;;;;;36.80;24.90;;;;;;5035280;28;19916;-70
2022/04/23 10:59:42;;;;;;;;;;;37.10;24.30;;;;;;5065916;28;19908;-70
2022/04/23 11:02:13;;;;;;;;;;;37.20;24.60;;;;;;5066489;28;19912;-71
2022/04/23 11:12:14;;;;;;;;;;;37.30;24.40;;;;;;5048756;28;19908;-70
2022/04/23 11:13:23;;;;;;;;;;;37.20;24.40;;;;;;5069456;28;19951;-70
2022/04/23 11:16:08;;;;;;;;;;;37.20;24.60;;;;;;5050631;28;20003;-69
2022/04/23 11:18:34;;;;;;;;;;;37.50;24.40;;;;;;5050713;28;20293;-70
2022/04/23 11:21:20;;;;;;;;;;;37.90;24.00;;;;;;5065332;28;20444;-69
2022/04/23 11:23:47;;;;;;;;;;;37.70;23.80;;;;;;5048782;28;19909;-70
2022/04/23 11:26:13;;;;;;;;;;;37.30;24.20;;;;;;5049713;28;19912;-70
2022/04/23 11:28:40;;;;;;;;;;;37.20;24.50;;;;;;5051230;28;19916;-69
2022/04/23 11:31:16;;;;;;;;;;;37.30;23.90;;;;;;5047107;28;19927;-69
2022/04/23 11:33:50;;;;;;;;;;;37.50;23.80;;;;;;5066876;28;20221;-69
2022/04/23 11:36:19;;;;;;;;;;;37.60;23.60;;;;;;5063812;28;19912;-69
2022/04/23 11:38:45;;;;;;;;;;;37.70;23.40;;;;;;5069076;28;19939;-67
2022/04/23 11:41:24;;;;;;;;;;;37.50;23.40;;;;;;5050321;28;19913;-68
2022/04/23 11:43:50;;;;;;;;;;;37.10;23.90;;;;;;5068483;28;19923;-69
2022/04/23 11:46:15;;;;;;;;;;;36.10;24.70;;;;;;5048583;28;19959;-69
2022/04/23 11:48:42;;;;;;;;;;;34.40;25.90;;;;;;5050121;28;19916;-69
2022/04/23 11:51:12;;;;;;;17.60;12.50;;;33.90;26.40;;;;;;5045796;28;20606;-69
2022/04/23 11:53:56;;;;;;;16.50;13.77;;;32.80;27.50;;;;;;5067039;28;20708;-70
2022/04/23 11:56:22;;;;;;;;;;;31.80;28.40;;;;;;5065520;28;20393;-70
2022/04/23 11:58:48;;;;;;;;;;;30.90;29.00;;;;;;5068808;28;19905;-70
2022/04/23 12:01:13;;;;;;;;;;;30.10;29.90;;;;;;5062749;28;19946;-71
2022/04/23 12:03:49;;;;;;;;;;;29.60;30.20;;;;;;5047280;28;20003;-70
2022/04/23 12:06:15;;;;;;;;;;;29.30;30.80;;;;;;5049264;28;19916;-70
2022/04/23 12:08:40;;;;;;;;;;;29.00;31.10;;;;;;5068186;28;19969;-70
2022/04/23 12:11:26;;;;;;;;;;;28.80;31.60;;;;;;5049740;28;20392;-70
2022/04/23 12:13:52;;;;;;;;;;;28.80;31.70;;;;;;5065735;28;20368;-69
2022/04/23 12:16:31;;;;;;;;;;;29.10;32.20;;;;;;5065036;28;19931;-70
2022/04/23 12:19:00;;;;;;;;;;;29.30;31.40;;;;;;5053724;28;20003;-69
2022/04/23 12:21:26;;;;;;;;;;;29.40;31.60;;;;;;5064811;28;20422;-69
2022/04/23 12:23:51;;;;;;;;;;;29.20;31.60;;;;;;5072336;28;19917;-71
2022/04/23 12:26:19;;;;;;;;;;;29.00;32.60;;;;;;5052148;28;19913;-69
2022/04/23 12:42:23;;;;;;;22.98;13.82;;;28.40;32.90;;;;;;5068419;28;20189;-69
2022/04/23 12:44:51;;;;;;;19.65;14.07;;;28.80;32.00;;;;;;5036276;28;20205;-70
2022/04/23 12:47:34;;;;;;;19.02;14.40;;;29.20;32.20;;;;;;5051516;28;20186;-69
2022/04/23 12:50:02;;;;;;;17.48;12.55;;;29.40;31.80;;;;;;5052890;28;20572;-70
2022/04/23 12:52:29;;;;;;;28.67;14.32;;;29.60;31.80;;;;;;5069533;28;20677;-71
2022/04/23 12:55:13;;;;;;;19.95;13.05;;;29.70;31.70;;;;;;5052496;28;20915;-71
2022/04/23 12:57:54;;;;;;;18.77;12.68;;;29.70;31.70;;;;;;5067296;28;20190;-70
2022/04/23 13:00:20;;;;;;;18.10;13.52;;;29.60;32.20;;;;;;5042832;28;20521;-71
2022/04/23 13:02:51;;;;;;;19.67;13.13;;;29.50;32.00;;;;;;5068260;28;20182;-70
2022/04/23 13:05:17;;;;;;;18.00;13.25;;;29.40;32.00;;;;;;5065840;28;20193;-71
2022/04/23 13:10:27;;;;;;;18.73;13.32;;;29.20;32.10;;;;;;5066960;28;20304;-72
2022/04/23 13:12:53;;;;;;;18.40;13.13;;;29.00;32.30;;;;;;5052524;28;20277;-71
2022/04/23 13:15:19;;;;;;;16.65;12.18;;;29.00;32.50;;;;;;5068730;28;20194;-69
2022/04/23 13:17:46;;;;;;;18.45;12.85;;;28.90;32.70;;;;;;5052730;28;20192;-70
2022/04/23 13:20:13;;;;;;;17.45;12.32;;;28.80;33.60;;;;;;5067658;28;20187;-72
2022/04/23 13:22:41;;;;;;;16.73;12.25;;;28.70;32.90;;;;;;5051707;28;20178;-70
2022/04/23 13:25:07;;;;;;;18.23;12.80;;;28.60;33.30;;;;;;5067173;28;20203;-69
2022/04/23 13:27:33;;;;;;;18.35;13.23;;;28.60;33.40;;;;;;5050551;28;20411;-68